createdAt,value
2023-02-02T00:02:24.621Z,4.85
2023-02-02T00:04:53.078Z,4.86
2023-02-02T00:07:21.453Z,4.86
2023-02-02T00:09:49.751Z,4.85
2023-02-02T00:12:18.048Z,4.86
2023-02-02T00:14:46.605Z,4.85
2023-02-02T00:17:15.468Z,4.88
2023-02-02T00:19:46.209Z,4.90
2023-02-02T00:22:15.815Z,4.91
2023-02-02T00:24:44.326Z,4.92
2023-02-02T00:27:13.292Z,4.90
2023-02-02T00:29:41.873Z,4.86
2023-02-02T00:32:10.567Z,4.78
2023-02-02T00:34:41.494Z,4.66
2023-02-02T00:37:09.803Z,4.59
2023-02-02T00:39:38.760Z,4.58
2023-02-02T00:42:07.146Z,4.61
2023-02-02T00:44:54.053Z,4.64
2023-02-02T00:47:22.839Z,4.66
2023-02-02T00:49:51.551Z,4.66
2023-02-02T00:52:19.808Z,4.66
2023-02-02T00:54:48.587Z,4.67
2023-02-02T00:57:16.973Z,4.70
2023-02-02T00:59:45.651Z,4.74
2023-02-02T01:02:14.420Z,4.76
2023-02-02T01:04:43.128Z,4.75
2023-02-02T01:07:11.605Z,4.74
2023-02-02T01:09:39.996Z,4.71
2023-02-02T01:12:11.022Z,4.69
2023-02-02T01:14:39.816Z,4.68
2023-02-02T01:17:08.298Z,4.67
2023-02-02T01:19:36.717Z,4.68
2023-02-02T01:22:05.368Z,4.68
2023-02-02T01:24:33.629Z,4.67
2023-02-02T01:27:02.846Z,4.63
2023-02-02T01:29:33.665Z,4.57
2023-02-02T01:32:02.143Z,4.53
2023-02-02T01:34:30.934Z,4.51
2023-02-02T01:36:59.240Z,4.51
2023-02-02T01:39:28.093Z,4.51
2023-02-02T01:41:57.707Z,4.51
2023-02-02T01:45:11.154Z,4.49
2023-02-02T01:47:53.166Z,4.45
2023-02-02T01:50:23.416Z,4.42
2023-02-02T01:52:51.836Z,4.40
2023-02-02T01:55:22.172Z,4.39
2023-02-02T01:58:02.834Z,4.40
2023-02-02T02:00:31.542Z,4.40
2023-02-02T02:03:12.799Z,4.40
2023-02-02T02:05:43.110Z,4.38
2023-02-02T02:08:24.174Z,4.35
2023-02-02T02:10:52.981Z,4.33
2023-02-02T02:13:23.169Z,4.32
2023-02-02T02:16:21.597Z,4.34
2023-02-02T02:19:02.858Z,4.35
2023-02-02T02:22:05.949Z,4.35
2023-02-02T02:25:03.619Z,4.32
2023-02-02T02:27:56.266Z,4.28
2023-02-02T02:30:24.781Z,4.24
2023-02-02T02:33:04.915Z,4.21
2023-02-02T02:35:41.699Z,4.21
2023-02-02T02:38:29.298Z,4.21
2023-02-02T02:41:00.440Z,4.20
2023-02-02T02:43:31.262Z,4.19
2023-02-02T02:45:59.905Z,4.16
2023-02-02T02:48:29.681Z,4.12
2023-02-02T02:51:29.898Z,4.08
2023-02-02T02:53:58.992Z,4.04
2023-02-02T02:56:35.978Z,4.03
2023-02-02T02:59:44.796Z,4.03
2023-02-02T03:02:17.145Z,4.04
2023-02-02T03:04:56.710Z,4.03
2023-02-02T03:07:29.196Z,4.02
2023-02-02T03:09:57.668Z,4.00
2023-02-02T03:12:25.951Z,3.98
2023-02-02T03:14:54.936Z,3.99
2023-02-02T03:17:23.219Z,3.99
2023-02-02T03:19:51.689Z,4.00
2023-02-02T03:22:20.169Z,4.02
2023-02-02T03:24:48.444Z,4.01
2023-02-02T03:27:16.924Z,3.99
2023-02-02T03:29:45.813Z,3.96
2023-02-02T03:32:14.293Z,3.94
2023-02-02T03:34:42.876Z,3.93
2023-02-02T03:37:11.268Z,3.93
2023-02-02T03:39:40.044Z,3.94
2023-02-02T03:42:08.522Z,3.93
2023-02-02T03:44:37.820Z,3.90
2023-02-02T03:47:06.232Z,3.85
2023-02-02T03:49:34.658Z,3.81
2023-02-02T03:52:05.211Z,3.78
2023-02-02T03:54:33.687Z,3.76
2023-02-02T03:57:02.167Z,3.77
2023-02-02T03:59:31.168Z,3.78
2023-02-02T04:01:59.483Z,3.78
2023-02-02T04:04:28.328Z,3.76
2023-02-02T04:06:58.957Z,3.74
2023-02-02T04:09:28.371Z,3.72
2023-02-02T04:11:56.841Z,3.71
2023-02-02T04:14:25.423Z,3.71
2023-02-02T04:16:54.037Z,3.71
2023-02-02T04:19:24.873Z,3.70
2023-02-02T04:21:54.038Z,3.67
2023-02-02T04:24:22.315Z,3.64
2023-02-02T04:26:51.055Z,3.61
2023-02-02T04:29:19.531Z,3.58
2023-02-02T04:31:48.229Z,3.57
2023-02-02T04:34:16.749Z,3.58
2023-02-02T04:36:45.255Z,3.60
2023-02-02T04:39:13.810Z,3.60
2023-02-02T04:41:42.497Z,3.60
2023-02-02T04:44:18.676Z,3.59
2023-02-02T04:46:50.108Z,3.59
2023-02-02T04:49:18.619Z,3.59
2023-02-02T04:51:47.273Z,3.62
2023-02-02T04:54:19.232Z,3.65
2023-02-02T04:56:47.611Z,3.66
2023-02-02T04:59:16.298Z,3.65
2023-02-02T05:01:44.903Z,3.64
2023-02-02T05:04:13.504Z,3.64
2023-02-02T05:06:41.841Z,3.63
2023-02-02T05:09:11.040Z,3.65
2023-02-02T05:11:41.259Z,3.67
2023-02-02T05:14:09.947Z,3.66
2023-02-02T05:16:40.296Z,3.65
2023-02-02T05:19:10.342Z,3.64
2023-02-02T05:21:39.398Z,3.63
2023-02-02T05:24:07.779Z,3.62
2023-02-02T05:26:36.067Z,3.62
2023-02-02T05:29:04.410Z,3.63
2023-02-02T05:31:33.562Z,3.64
2023-02-02T05:34:02.088Z,3.64
2023-02-02T05:36:30.980Z,3.63
2023-02-02T05:39:00.685Z,3.62
2023-02-02T05:41:30.158Z,3.61
2023-02-02T05:44:01.915Z,3.62
2023-02-02T05:46:30.744Z,3.62
2023-02-02T05:48:59.641Z,3.63
2023-02-02T05:51:33.856Z,3.62
2023-02-02T05:54:02.677Z,3.61
2023-02-02T05:56:31.330Z,3.59
2023-02-02T05:59:00.413Z,3.61
2023-02-02T06:01:29.100Z,3.70
2023-02-02T06:03:57.787Z,3.85
2023-02-02T06:06:26.278Z,4.02
2023-02-02T06:08:54.885Z,4.17
2023-02-02T06:11:23.629Z,4.28
2023-02-02T06:13:52.314Z,4.35
2023-02-02T06:16:20.801Z,4.40
2023-02-02T06:18:49.171Z,4.46
2023-02-02T06:21:20.037Z,4.53
2023-02-02T06:23:48.364Z,4.63
2023-02-02T06:26:17.038Z,4.75
2023-02-02T06:28:49.339Z,4.86
2023-02-02T06:31:20.682Z,4.96
2023-02-02T06:33:53.988Z,4.98
2023-02-02T06:36:22.381Z,5.08
2023-02-02T06:38:54.728Z,5.15
2023-02-02T06:41:23.217Z,5.22
2023-02-02T06:43:52.204Z,5.27
2023-02-02T06:46:20.806Z,5.32
2023-02-02T06:48:49.166Z,5.35
2023-02-02T06:51:17.644Z,5.40
2023-02-02T06:53:48.476Z,5.44
2023-02-02T06:56:17.272Z,5.47
2023-02-02T06:58:45.867Z,5.47
2023-02-02T07:01:14.591Z,5.44
2023-02-02T07:03:43.437Z,5.39
2023-02-02T07:06:25.631Z,5.34
2023-02-02T07:09:02.037Z,5.29
2023-02-02T07:11:35.565Z,5.27
2023-02-02T07:14:07.149Z,5.29
2023-02-02T07:16:35.627Z,5.32
2023-02-02T07:19:04.311Z,5.37
2023-02-02T07:21:36.404Z,5.42
2023-02-02T07:24:06.087Z,5.48
2023-02-02T07:26:36.319Z,5.54
2023-02-02T07:29:05.094Z,5.60
2023-02-02T07:31:36.740Z,5.64
2023-02-02T07:34:06.157Z,5.68
2023-02-02T07:36:34.634Z,5.71
2023-02-02T07:39:05.273Z,5.75
2023-02-02T07:41:35.306Z,5.81
2023-02-02T07:44:04.590Z,5.88
2023-02-02T07:46:32.938Z,5.94
2023-02-02T07:49:01.333Z,5.99
2023-02-02T07:51:29.717Z,6.04
2023-02-02T07:53:59.725Z,6.07
2023-02-02T07:56:28.534Z,6.08
2023-02-02T07:58:57.204Z,6.11
2023-02-02T08:01:26.605Z,6.15
2023-02-02T08:03:55.802Z,6.19
2023-02-02T08:06:24.841Z,6.25
2023-02-02T08:08:53.275Z,6.32
2023-02-02T08:11:23.298Z,6.39
2023-02-02T08:13:53.530Z,6.44
2023-02-02T08:16:22.245Z,6.48
2023-02-02T08:18:50.894Z,6.41
2023-02-02T08:21:19.927Z,6.49
2023-02-02T08:23:48.352Z,6.56
2023-02-02T08:26:19.314Z,6.60
2023-02-02T08:28:48.941Z,6.65
2023-02-02T08:31:21.955Z,6.71
2023-02-02T08:33:50.467Z,6.78
2023-02-02T08:36:19.898Z,6.86
2023-02-02T08:38:48.309Z,6.94
2023-02-02T08:41:19.596Z,7.00
2023-02-02T08:43:48.382Z,7.04
2023-02-02T08:46:18.390Z,7.07
2023-02-02T08:48:47.288Z,7.07
2023-02-02T08:51:17.063Z,7.07
2023-02-02T08:53:45.785Z,7.07
2023-02-02T08:56:15.813Z,7.10
2023-02-02T08:58:45.930Z,7.16
2023-02-02T09:01:19.557Z,7.22
2023-02-02T09:03:48.000Z,7.29
2023-02-02T09:06:19.354Z,7.36
2023-02-02T09:08:47.991Z,7.41
2023-02-02T09:11:17.718Z,7.46
2023-02-02T09:13:47.232Z,7.51
2023-02-02T09:16:17.727Z,7.54
2023-02-02T09:18:46.187Z,7.59
2023-02-02T09:21:16.066Z,7.63
2023-02-02T09:23:44.865Z,7.69
2023-02-02T09:26:17.979Z,7.76
2023-02-02T09:28:48.303Z,7.83
2023-02-02T09:31:17.073Z,7.89
2023-02-02T09:33:45.809Z,7.94
2023-02-02T09:36:15.774Z,7.98
2023-02-02T09:38:44.336Z,8.01
2023-02-02T09:41:27.771Z,8.05
2023-02-02T09:44:15.295Z,8.07
2023-02-02T09:47:02.013Z,8.12
2023-02-02T09:49:43.199Z,8.18
2023-02-02T09:52:17.689Z,8.25
2023-02-02T09:54:47.827Z,8.33
2023-02-02T09:57:29.403Z,8.41
2023-02-02T09:59:57.724Z,8.48
2023-02-02T10:02:33.865Z,8.53
2023-02-02T10:05:09.701Z,8.57
2023-02-02T10:07:40.692Z,8.61
2023-02-02T10:10:26.098Z,8.65
2023-02-02T10:13:00.351Z,8.67
2023-02-02T10:15:50.864Z,8.69
2023-02-02T10:18:42.959Z,8.70
2023-02-02T10:21:42.982Z,8.73
2023-02-02T10:24:24.887Z,8.76
2023-02-02T10:27:09.636Z,8.81
2023-02-02T10:29:49.106Z,8.86
2023-02-02T10:32:31.188Z,8.91
2023-02-02T10:35:37.442Z,8.95
2023-02-02T10:38:16.469Z,8.98
2023-02-02T10:41:04.813Z,9.01
2023-02-02T10:44:01.661Z,9.06
2023-02-02T10:46:51.008Z,9.10
2023-02-02T10:49:24.428Z,9.14
2023-02-02T10:52:17.609Z,9.20
2023-02-02T10:54:59.545Z,9.28
2023-02-02T10:57:35.021Z,9.33
2023-02-02T11:00:11.112Z,9.39
2023-02-02T11:02:39.593Z,9.43
2023-02-02T11:05:32.832Z,9.47
2023-02-02T11:08:01.305Z,9.51
2023-02-02T11:10:31.763Z,9.53
2023-02-02T11:13:02.091Z,9.54
2023-02-02T11:15:30.843Z,9.54
2023-02-02T11:18:22.395Z,9.55
2023-02-02T11:20:51.049Z,9.54
2023-02-02T11:23:20.044Z,9.53
2023-02-02T11:25:58.287Z,9.53
2023-02-02T11:28:30.532Z,9.56
2023-02-02T11:30:59.720Z,9.59
2023-02-02T11:33:33.322Z,9.61
2023-02-02T11:36:23.134Z,9.63
2023-02-02T11:39:15.333Z,9.65
2023-02-02T11:41:43.925Z,9.64
2023-02-02T11:44:29.289Z,9.63
2023-02-02T11:46:57.871Z,9.63
2023-02-02T11:49:26.616Z,9.64
2023-02-02T11:52:06.195Z,9.66
2023-02-02T11:54:35.734Z,9.68
2023-02-02T11:57:10.022Z,9.71
2023-02-02T11:59:40.032Z,9.77
2023-02-02T12:02:20.970Z,9.83
2023-02-02T12:05:16.424Z,9.89
2023-02-02T12:07:45.316Z,9.92
2023-02-02T12:10:20.349Z,9.91
2023-02-02T12:13:29.951Z,9.89
2023-02-02T12:16:08.740Z,9.82
2023-02-02T12:18:45.931Z,9.76
2023-02-02T12:21:38.965Z,9.73
2023-02-02T12:24:32.423Z,9.73
2023-02-02T12:27:30.906Z,9.74
2023-02-02T12:29:59.284Z,9.77
2023-02-02T12:32:32.782Z,9.79
2023-02-02T12:35:16.216Z,9.78
2023-02-02T12:38:03.742Z,9.75
2023-02-02T12:40:47.813Z,9.69
2023-02-02T12:43:33.059Z,9.60
2023-02-02T12:46:11.887Z,9.49
2023-02-02T12:48:46.303Z,9.38
2023-02-02T12:51:42.941Z,9.27
2023-02-02T12:54:34.236Z,9.18
2023-02-02T12:57:07.452Z,9.12
2023-02-02T12:59:50.903Z,9.10
2023-02-02T13:02:34.233Z,9.07
2023-02-02T13:05:24.807Z,9.03
2023-02-02T13:07:56.554Z,8.98
2023-02-02T13:10:36.909Z,8.92
2023-02-02T13:13:16.806Z,8.88
2023-02-02T13:15:50.174Z,8.86
2023-02-02T13:18:30.527Z,8.86
2023-02-02T13:21:01.256Z,8.88
2023-02-02T13:23:36.698Z,8.93
2023-02-02T13:26:07.311Z,8.98
2023-02-02T13:28:51.965Z,9.01
2023-02-02T13:31:28.567Z,9.03
2023-02-02T13:34:17.623Z,9.02
2023-02-02T13:36:49.489Z,9.02
2023-02-02T13:39:27.795Z,9.02
2023-02-02T13:41:56.583Z,9.01
2023-02-02T13:44:32.960Z,9.02
2023-02-02T13:47:05.969Z,9.02
2023-02-02T13:49:52.739Z,9.01
2023-02-02T13:53:08.634Z,8.99
2023-02-02T13:55:45.820Z,8.91
2023-02-02T13:58:44.817Z,8.86
2023-02-02T14:01:13.447Z,8.81
2023-02-02T14:03:55.625Z,8.79
2023-02-02T14:06:25.010Z,8.77
2023-02-02T14:09:00.652Z,8.76
2023-02-02T14:11:34.467Z,8.72
2023-02-02T14:14:35.818Z,8.68
2023-02-02T14:17:17.604Z,8.66
2023-02-02T14:19:53.761Z,8.66
2023-02-02T14:22:48.661Z,8.67
2023-02-02T14:25:37.219Z,8.67
2023-02-02T14:28:45.042Z,8.65
2023-02-02T14:31:29.340Z,8.59
2023-02-02T14:34:27.440Z,8.55
2023-02-02T14:37:21.109Z,8.53
2023-02-02T14:40:11.330Z,8.51
2023-02-02T14:43:37.020Z,8.49
2023-02-02T14:46:15.161Z,8.47
2023-02-02T14:48:46.774Z,8.44
2023-02-02T14:51:19.458Z,8.41
2023-02-02T14:53:49.700Z,8.40
2023-02-02T14:56:18.367Z,8.38
2023-02-02T14:59:00.522Z,8.35
2023-02-02T15:01:31.464Z,8.33
2023-02-02T15:04:24.267Z,8.33
2023-02-02T15:06:53.353Z,8.33
2023-02-02T15:09:26.851Z,8.32
2023-02-02T15:12:07.211Z,8.31
2023-02-02T15:14:36.923Z,8.28
2023-02-02T15:17:48.619Z,8.27
2023-02-02T15:20:45.047Z,8.26
2023-02-02T15:23:36.565Z,8.26
2023-02-02T15:26:19.007Z,8.25
2023-02-02T15:28:49.609Z,8.24
2023-02-02T15:31:34.224Z,8.23
2023-02-02T15:34:05.292Z,8.23
2023-02-02T15:36:35.839Z,8.24
2023-02-02T15:39:34.117Z,8.25
2023-02-02T15:42:22.764Z,8.24
2023-02-02T15:44:51.554Z,8.23
2023-02-02T15:47:22.842Z,8.23
2023-02-02T15:49:51.380Z,8.24
2023-02-02T15:52:28.283Z,8.24
2023-02-02T15:54:58.039Z,8.23
2023-02-02T15:57:35.251Z,8.22
2023-02-02T16:00:43.398Z,8.23
2023-02-02T16:03:13.278Z,8.25
2023-02-02T16:05:44.526Z,8.25
2023-02-02T16:08:30.104Z,8.24
2023-02-02T16:11:12.526Z,8.24
2023-02-02T16:13:42.425Z,8.25
2023-02-02T16:16:25.134Z,8.26
2023-02-02T16:19:09.210Z,8.27
2023-02-02T16:21:43.304Z,8.26
2023-02-02T16:24:17.717Z,8.26
2023-02-02T16:26:45.965Z,8.26
2023-02-02T16:29:17.664Z,8.27
2023-02-02T16:31:46.979Z,8.27
2023-02-02T16:34:19.624Z,8.25
2023-02-02T16:37:28.349Z,8.24
2023-02-02T16:39:58.646Z,8.24
2023-02-02T16:42:29.440Z,8.25
2023-02-02T16:44:59.525Z,8.27
2023-02-02T16:47:28.174Z,8.27
2023-02-02T16:50:08.971Z,8.26
2023-02-02T16:52:57.628Z,8.24
2023-02-02T16:55:36.265Z,8.23
2023-02-02T16:58:21.241Z,8.21
2023-02-02T17:01:15.020Z,8.18
2023-02-02T17:03:52.891Z,8.14
2023-02-02T17:06:45.942Z,8.12
2023-02-02T17:09:37.757Z,8.09
2023-02-02T17:12:35.356Z,8.06
2023-02-02T17:15:29.408Z,8.03
2023-02-02T17:17:58.409Z,8.00
2023-02-02T17:20:27.195Z,7.98
2023-02-02T17:23:07.253Z,7.97
2023-02-02T17:25:43.108Z,7.96
2023-02-02T17:28:14.348Z,7.93
2023-02-02T17:30:43.877Z,7.89
2023-02-02T17:33:15.131Z,7.88
2023-02-02T17:35:54.903Z,7.86
2023-02-02T17:38:25.175Z,7.84
2023-02-02T17:40:55.281Z,7.81
2023-02-02T17:43:27.348Z,7.79
2023-02-02T17:45:55.882Z,7.77
2023-02-02T17:48:24.417Z,7.78
2023-02-02T17:50:52.892Z,7.77
2023-02-02T17:53:21.720Z,7.75
2023-02-02T17:55:51.689Z,7.74
2023-02-02T17:58:20.349Z,7.72
2023-02-02T18:00:53.459Z,7.54
2023-02-02T18:03:24.117Z,7.44
2023-02-02T18:05:52.687Z,7.39
2023-02-02T18:08:21.370Z,7.36
2023-02-02T18:10:50.662Z,7.33
2023-02-02T18:13:20.385Z,7.30
2023-02-02T18:15:49.499Z,7.29
2023-02-02T18:18:17.958Z,7.28
2023-02-02T18:20:48.172Z,7.25
2023-02-02T18:23:17.371Z,7.21
2023-02-02T18:25:45.654Z,7.17
2023-02-02T18:28:17.701Z,7.13
2023-02-02T18:30:47.137Z,7.11
2023-02-02T18:33:18.155Z,7.10
2023-02-02T18:35:47.455Z,7.08
2023-02-02T18:38:16.259Z,7.05
2023-02-02T18:40:44.514Z,7.03
2023-02-02T18:43:13.095Z,7.01
2023-02-02T18:45:41.984Z,7.02
2023-02-02T18:48:10.887Z,7.19
2023-02-02T18:50:39.152Z,7.26
2023-02-02T18:53:07.733Z,7.25
2023-02-02T18:55:37.853Z,7.23
2023-02-02T18:58:10.954Z,7.22
2023-02-02T19:00:39.545Z,7.23
2023-02-02T19:03:08.547Z,7.23
2023-02-02T19:05:55.643Z,7.21
2023-02-02T19:08:24.522Z,7.19
2023-02-02T19:10:58.127Z,7.18
2023-02-02T19:13:28.144Z,7.17
2023-02-02T19:15:57.607Z,7.17
2023-02-02T19:18:31.584Z,7.16
2023-02-02T19:21:00.338Z,7.15
2023-02-02T19:23:30.048Z,7.13
2023-02-02T19:25:58.531Z,7.11
2023-02-02T19:28:28.545Z,7.11
2023-02-02T19:30:58.638Z,7.10
2023-02-02T19:33:37.147Z,7.05
2023-02-02T19:36:08.309Z,7.03
2023-02-02T19:38:37.725Z,7.00
2023-02-02T19:41:17.777Z,6.94
2023-02-02T19:43:48.099Z,6.89
2023-02-02T19:46:23.572Z,6.87
2023-02-02T19:48:54.189Z,6.86
2023-02-02T19:51:44.056Z,6.85
2023-02-02T19:54:26.098Z,6.84
2023-02-02T19:57:32.393Z,6.85
2023-02-02T20:00:01.212Z,6.87
2023-02-02T20:02:34.916Z,6.89
2023-02-02T20:05:23.161Z,6.88
2023-02-02T20:08:00.693Z,6.87
2023-02-02T20:10:39.678Z,6.86
2023-02-02T20:13:49.223Z,6.86
2023-02-02T20:16:22.560Z,6.86
2023-02-02T20:18:53.989Z,6.86
2023-02-02T20:21:34.026Z,6.84
2023-02-02T20:24:02.491Z,6.83
2023-02-02T20:26:35.939Z,6.80
2023-02-02T20:29:20.238Z,6.77
2023-02-02T20:31:49.139Z,6.73
2023-02-02T20:34:21.751Z,6.71
2023-02-02T20:36:50.714Z,6.70
2023-02-02T20:39:32.356Z,6.68
2023-02-02T20:42:00.873Z,6.66
2023-02-02T20:44:30.385Z,6.63
2023-02-02T20:47:00.659Z,6.57
2023-02-02T20:49:31.965Z,6.63
2023-02-02T20:52:02.186Z,6.61
2023-02-02T20:54:31.773Z,6.58
2023-02-02T20:57:00.380Z,6.54
2023-02-02T20:59:29.558Z,6.51
2023-02-02T21:01:59.073Z,6.48
2023-02-02T21:04:28.413Z,6.47
2023-02-02T21:06:59.695Z,6.45
2023-02-02T21:09:30.233Z,6.40
2023-02-02T21:12:00.964Z,6.31
2023-02-02T21:14:29.954Z,6.22
2023-02-02T21:17:12.927Z,6.11
2023-02-02T21:19:44.527Z,6.02
2023-02-02T21:22:12.910Z,6.00
2023-02-02T21:24:42.816Z,6.02
2023-02-02T21:27:11.543Z,6.01
2023-02-02T21:29:40.912Z,5.93
2023-02-02T21:32:09.548Z,5.79
2023-02-02T21:34:38.012Z,5.66
2023-02-02T21:37:14.452Z,5.58
2023-02-02T21:39:49.788Z,5.55
2023-02-02T21:42:20.379Z,5.54
2023-02-02T21:44:53.891Z,5.54
2023-02-02T21:47:22.223Z,5.54
2023-02-02T21:49:51.017Z,5.53
2023-02-02T21:52:19.975Z,5.52
2023-02-02T21:54:49.711Z,5.53
2023-02-02T21:57:26.858Z,5.53
2023-02-02T21:59:56.242Z,5.48
2023-02-02T22:02:45.158Z,5.43
2023-02-02T22:05:35.925Z,5.39
2023-02-02T22:08:18.608Z,5.30
2023-02-02T22:10:47.448Z,5.23
2023-02-02T22:13:18.469Z,5.22
2023-02-02T22:15:52.010Z,5.22
2023-02-02T22:18:22.389Z,5.22
2023-02-02T22:20:51.815Z,5.22
2023-02-02T22:23:21.719Z,5.23
2023-02-02T22:25:51.884Z,5.22
2023-02-02T22:28:23.965Z,5.23
2023-02-02T22:30:53.170Z,5.23
2023-02-02T22:33:22.385Z,5.25
2023-02-02T22:35:51.075Z,5.26
2023-02-02T22:38:21.494Z,5.24
2023-02-02T22:40:50.623Z,5.17
2023-02-02T22:43:20.220Z,5.06
2023-02-02T22:45:49.423Z,4.99
2023-02-02T22:48:18.284Z,4.97
2023-02-02T22:50:47.489Z,4.95
2023-02-02T22:53:15.976Z,4.94
2023-02-02T22:55:44.552Z,4.95
2023-02-02T22:58:13.130Z,4.97
2023-02-02T23:00:42.025Z,4.98
2023-02-02T23:03:10.666Z,5.00
2023-02-02T23:05:39.389Z,5.00
2023-02-02T23:08:08.286Z,5.02
2023-02-02T23:10:56.428Z,5.04
2023-02-02T23:13:24.644Z,5.06
2023-02-02T23:15:52.936Z,5.06
2023-02-02T23:18:22.377Z,5.05
2023-02-02T23:20:50.852Z,5.04
2023-02-02T23:23:19.341Z,5.03
2023-02-02T23:25:47.606Z,5.02
2023-02-02T23:28:15.955Z,4.93
2023-02-02T23:30:45.056Z,4.82
2023-02-02T23:33:13.567Z,4.76
2023-02-02T23:35:42.153Z,4.70
2023-02-02T23:38:10.826Z,4.61
2023-02-02T23:40:39.513Z,4.55
2023-02-02T23:43:08.824Z,4.47
2023-02-02T23:45:37.426Z,4.38
2023-02-02T23:48:06.910Z,4.30
2023-02-02T23:50:38.060Z,4.26
2023-02-02T23:53:07.140Z,4.21
2023-02-02T23:55:37.568Z,4.19
2023-02-02T23:58:06.351Z,4.20
